Flight Track Log - Related Links

Times and Time Zones

All times are in EDT time to prevent confusion due to time zone crossing. See the VNR160 flight status page for this flight to view local times or setup timezone preferences in your user account.

Time Position Orientation Groundspeed Altitude Reporting Facility
EDT Latitude Longitude Course Direction KTS MPH feet Rate Location/Type
Sat 09:28:47 AM 32.8667 -96.8667 259° West 144 166 1,600  Level Dallas / Fort Worth TRACON
Sat 09:29:47 AM 32.9000 -96.9000 320° Northwest 155 178 3,700 1,190 Climbing Dallas / Fort Worth TRACON
Sat 09:30:48 AM 32.9000 -96.9667 270° West 195 224 4,000 141 Climbing Dallas / Fort Worth TRACON
Sat 09:31:55 AM 32.9000 -97.0333 270° West 197 227 4,000  Level Dallas / Fort Worth TRACON
Sat 09:32:55 AM 32.9000 -97.1000 270° West 193 222 4,000  Level Dallas / Fort Worth TRACON
Sat 09:33:56 AM 32.9000 -97.1667 270° West 192 221 4,000  Level Dallas / Fort Worth TRACON
Sat 09:34:00 AM 32.7895 -97.3799 259° West  Level FlightAware Approximate
Sat 09:34:56 AM 32.9000 -97.2167 270° West 191 220 4,000  Level Dallas / Fort Worth TRACON
Sat 09:36:30 AM 32.8708 -97.3219 252° West 202 232 5,900 1,481 Climbing Fort Worth Center
Sat 09:37:30 AM 32.8606 -97.3739 257° West 197 227 7,800 1,050 Climbing Fort Worth Center
Sat 09:38:30 AM 32.8439 -97.4531 256° West 213 245 8,000 950 Climbing Fort Worth Center
Sat 09:39:30 AM 32.8292 -97.5147 254° West 223 257 9,700 2,100 Climbing Fort Worth Center
Sat 09:40:30 AM 32.8144 -97.5864 256° West 217 250 12,200 2,250 Climbing Fort Worth Center
Sat 09:41:30 AM 32.7975 -97.6506 253° West 212 244 14,200 2,050 Climbing Fort Worth Center
Sat 09:42:30 AM 32.7850 -97.7172 257° West 207 238 16,300 2,050 Climbing Fort Worth Center
Sat 09:43:30 AM 32.7703 -97.7839 255° West 207 238 18,300 1,850 Climbing Fort Worth Center
Sat 09:44:30 AM 32.7575 -97.8433 256° West 200 230 20,000 1,650 Climbing Fort Worth Center
Sat 09:45:30 AM 32.7425 -97.9122 256° West 209 241 21,600 1,650 Climbing Fort Worth Center
Sat 09:46:30 AM 32.7297 -97.9764 257° West 209 241 23,300 1,450 Climbing Fort Worth Center
Sat 09:47:30 AM 32.7189 -98.0531 260° West 225 259 24,500 1,300 Climbing Fort Worth Center
Sat 09:48:30 AM 32.7103 -98.1269 262° West 230 265 25,900 1,500 Climbing Fort Worth Center
Sat 09:49:30 AM 32.7014 -98.2058 262° West 236 272 27,500 1,450 Climbing Fort Worth Center
Sat 09:50:30 AM 32.6906 -98.2847 261° West 236 272 28,800 1,350 Climbing Fort Worth Center
Sat 09:51:30 AM 32.6794 -98.3586 260° West 242 278 30,200 1,150 Climbing Fort Worth Center
Sat 09:52:30 AM 32.6725 -98.4375 264° West 242 278 31,100 800 Climbing Fort Worth Center
Sat 09:53:30 AM 32.6594 -98.5067 257° West 237 273 31,800 750 Climbing Fort Worth Center
Sat 09:54:30 AM 32.6525 -98.5856 264° West 242 278 32,600 750 Climbing Fort Worth Center
Sat 09:55:30 AM 32.6392 -98.6667 259° West 247 284 33,300 650 Climbing Fort Worth Center
Sat 09:56:30 AM 32.6278 -98.7481 261° West 252 290 33,900 600 Climbing Fort Worth Center
Sat 09:57:30 AM 32.6186 -98.8292 262° West 252 290 34,500 550 Climbing Fort Worth Center
Sat 09:58:30 AM 32.6094 -98.9128 263° West 257 296 35,000 450 Climbing Fort Worth Center
Sat 09:59:30 AM 32.5978 -98.9942 260° West 257 296 35,400 400 Climbing Fort Worth Center
Sat 10:00:30 AM 32.5864 -99.0753 261° West 257 296 35,800 300 Climbing Fort Worth Center
Sat 10:01:30 AM 32.5747 -99.1614 261° West 257 296 36,000 100 Climbing Fort Worth Center
Sat 10:02:30 AM 32.5631 -99.2472 261° West 257 296 36,000  Level Fort Worth Center
Sat 10:03:30 AM 32.5514 -99.3383 261° West 270 311 36,000  Level Fort Worth Center
Sat 10:04:30 AM 32.5394 -99.4292 261° West 280 322 36,000 50 Level Fort Worth Center
Sat 10:05:30 AM 32.5256 -99.5175 259° West 280 322 36,100 300 Climbing Fort Worth Center
Sat 10:06:30 AM 32.5136 -99.6086 261° West 280 322 36,600 450 Climbing Fort Worth Center
Sat 10:07:30 AM 32.5017 -99.6919 260° West 275 316 37,000 350 Climbing Fort Worth Center
Sat 10:08:30 AM 32.4875 -99.7778 259° West 275 316 37,300 300 Climbing Fort Worth Center
Sat 10:09:30 AM 32.4753 -99.8636 260° West 275 316 37,600 250 Climbing Fort Worth Center
Sat 10:10:30 AM 32.4383 -99.9489 243° Southwest 275 316 37,800 200 Climbing Fort Worth Center
Sat 10:11:30 AM 32.4011 -100.0264 240° Southwest 275 316 38,000 100 Climbing Fort Worth Center
Sat 10:12:30 AM 32.3639 -100.1042 240° Southwest 275 316 38,000  Level Fort Worth Center
Sat 10:13:30 AM 32.3289 -100.1817 242° Southwest 275 316 38,000  Level Fort Worth Center
Sat 10:14:30 AM 32.2917 -100.2617 241° Southwest 275 316 38,000  Level Fort Worth Center
Sat 10:15:30 AM 32.2522 -100.3439 240° Southwest 280 322 38,000  Level Fort Worth Center
Sat 10:16:30 AM 32.2128 -100.4236 240° Southwest 280 322 38,000  Level Fort Worth Center
Sat 10:17:30 AM 32.1753 -100.5058 242° Southwest 285 328 38,000  Level Fort Worth Center
Sat 10:18:30 AM 32.1358 -100.5831 239° Southwest 285 328 38,000  Level Fort Worth Center
Sat 10:19:30 AM 32.0981 -100.6650 241° Southwest 285 328 38,000  Level Fort Worth Center
Sat 10:20:30 AM 32.0583 -100.7469 240° Southwest 290 334 38,000  Level Fort Worth Center
Sat 10:21:30 AM 32.0208 -100.8264 241° Southwest 290 334 38,000  Level Fort Worth Center
Sat 10:22:30 AM 31.9789 -100.9106 240° Southwest 290 334 38,000  Level Fort Worth Center
Sat 10:23:30 AM 31.9497 -100.9806 244° Southwest 285 328 38,000  Level Fort Worth Center
Sat 10:24:30 AM 31.9097 -101.0622 240° Southwest 285 328 38,000  Level Fort Worth Center
Sat 10:25:30 AM 31.8719 -101.1439 241° Southwest 290 334 38,000  Level Fort Worth Center
Sat 10:26:30 AM 31.8297 -101.2253 239° Southwest 290 334 38,000  Level Fort Worth Center
Sat 10:28:02 AM 31.7653 -101.3519 239° Southwest 288 331 38,000  Level Houston Center
Sat 10:28:50 AM 31.7333 -101.4156 239° Southwest 285 328 38,000  Level Albuquerque Center
Sat 10:29:53 AM 31.6931 -101.4958 239° Southwest 286 329 38,000  Level Albuquerque Center
Sat 10:30:53 AM 31.6533 -101.5753 240° Southwest 284 327 38,000  Level Albuquerque Center
Sat 10:31:55 AM 31.6142 -101.6558 240° Southwest 284 327 38,000  Level Albuquerque Center
Sat 10:32:56 AM 31.5747 -101.7350 240° Southwest 283 326 38,000  Level Albuquerque Center
Sat 10:33:58 AM 31.5278 -101.8306 240° Southwest 284 327 38,000  Level Albuquerque Center
Sat 10:35:00 AM 31.4900 -101.9056 239° Southwest 283 326 38,000  Level Albuquerque Center
Sat 10:36:01 AM 31.4475 -101.9889 239° Southwest 294 338 38,000  Level Albuquerque Center
Sat 10:37:03 AM 31.4092 -102.0697 241° Southwest 287 330 38,000  Level Albuquerque Center
Sat 10:38:04 AM 31.3694 -102.1478 239° Southwest 281 323 38,000  Level Albuquerque Center
Sat 10:39:06 AM 31.3286 -102.2297 240° Southwest 287 330 38,000  Level Albuquerque Center
Sat 10:40:08 AM 31.2892 -102.3083 240° Southwest 284 327 38,000  Level Albuquerque Center
Sat 10:41:09 AM 31.2417 -102.4039 240° Southwest 283 326 38,000  Level Albuquerque Center
Sat 10:42:11 AM 31.2003 -102.4836 239° Southwest 286 329 38,000  Level Albuquerque Center
Sat 10:43:12 AM 31.1633 -102.5581 240° Southwest 281 323 38,000  Level Albuquerque Center
Sat 10:44:14 AM 31.1228 -102.6361 239° Southwest 281 323 38,000  Level Albuquerque Center
Sat 10:45:16 AM 31.0833 -102.7153 240° Southwest 283 326 38,000  Level Albuquerque Center
Sat 10:46:17 AM 31.0361 -102.8083 239° Southwest 280 322 38,000  Level Albuquerque Center
Sat 10:47:19 AM 30.9950 -102.8864 238° Southwest 281 323 38,000  Level Albuquerque Center
Sat 10:48:21 AM 30.9547 -102.9653 239° Southwest 282 325 38,000  Level Albuquerque Center
Sat 10:49:22 AM 30.9072 -103.0394 233° Southwest 286 329 38,000  Level Albuquerque Center
Sat 10:50:24 AM 30.8544 -103.1094 229° Southwest 287 330 38,000  Level Albuquerque Center
Sat 10:51:26 AM 30.8053 -103.1833 232° Southwest 288 331 38,000  Level Albuquerque Center
Sat 10:52:28 AM 30.7558 -103.2564 232° Southwest 287 330 38,000  Level Albuquerque Center
Sat 10:53:29 AM 30.6944 -103.3433 231° Southwest 289 333 38,000  Level Albuquerque Center
Sat 10:54:31 AM 30.6433 -103.4156 231° Southwest 290 334 38,000  Level Albuquerque Center
Sat 10:55:33 AM 30.5919 -103.4878 230° Southwest 290 334 38,000  Level Albuquerque Center
Sat 10:56:35 AM 30.5411 -103.5606 231° Southwest 291 335 38,000  Level Albuquerque Center
Sat 10:57:37 AM 30.4903 -103.6331 231° Southwest 290 334 38,000  Level Albuquerque Center
Sat 10:58:38 AM 30.4397 -103.7058 231° Southwest 291 335 38,000  Level Albuquerque Center
Sat 10:59:40 AM 30.3764 -103.7917 229° Southwest 291 335 38,000  Level Albuquerque Center
Sat 11:00:42 AM 30.3297 -103.8600 232° Southwest 293 337 38,000  Level Albuquerque Center
Sat 11:01:44 AM 30.2769 -103.9317 230° Southwest 292 336 38,000  Level Albuquerque Center
Sat 11:02:45 AM 30.2250 -104.0050 231° Southwest 293 337 38,000  Level Albuquerque Center
Sat 11:03:47 AM 30.1728 -104.0775 230° Southwest 293 337 38,000  Level Albuquerque Center
Sat 11:04:49 AM 30.1208 -104.1500 230° Southwest 293 337 38,000  Level Albuquerque Center
Sat 11:05:51 AM 30.0575 -104.2367 230° Southwest 293 337 38,000  Level Albuquerque Center
Sat 11:06:53 AM 30.0053 -104.3094 230° Southwest 294 338 38,000  Level Albuquerque Center
Sat 11:07:54 AM 29.9422 -104.3725 221° Southwest 306 352 38,000  Level Albuquerque Center
Sat 11:08:56 AM 29.8717 -104.4256 213° Southwest 305 351 38,000  Level Albuquerque Center
Sat 11:09:58 AM 29.8006 -104.4806 214° Southwest 306 352 38,000  Level Albuquerque Center
Sat 11:11:00 AM 29.7822 -104.5727 257° West  Level FlightAware Approximate
Sat 11:18:00 AM 29.4523 -105.0774 230° Southwest  Level FlightAware Approximate
Sat 11:19:00 AM 29.4009 -105.1468 230° Southwest  Level FlightAware Approximate
Sat 11:20:00 AM 29.3495 -105.2162 230° Southwest  Level FlightAware Approximate
Sat 11:21:00 AM 29.2980 -105.2855 230° Southwest  Level FlightAware Approximate
Sat 11:22:00 AM 29.2465 -105.3547 230° Southwest  Level FlightAware Approximate
Sat 11:23:00 AM 29.1950 -105.4239 230° Southwest  Level FlightAware Approximate
Sat 11:24:00 AM 29.1434 -105.4930 229° Southwest  Level FlightAware Approximate
Sat 11:25:00 AM 29.0918 -105.5620 229° Southwest  Level FlightAware Approximate
Sat 11:26:00 AM 29.0401 -105.6309 229° Southwest  Level FlightAware Approximate
Sat 11:27:00 AM 28.9884 -105.6998 229° Southwest  Level FlightAware Approximate
Sat 11:28:00 AM 28.9367 -105.7686 229° Southwest  Level FlightAware Approximate
Sat 11:29:00 AM 28.8850 -105.8374 229° Southwest  Level FlightAware Approximate
Sat 11:30:00 AM 28.8332 -105.9061 229° Southwest  Level FlightAware Approximate
Sat 11:31:00 AM 28.7730 -105.9606 199° South  Level FlightAware Approximate
Sat 11:32:00 AM 28.6979 -105.9900 199° South  Level FlightAware Approximate
Sat 11:33:00 AM 28.6228 -106.0193 199° South  Level FlightAware Approximate
Sat 11:34:00 AM 28.5478 -106.0486 199° South  Level FlightAware Approximate
Sat 11:35:00 AM 28.4727 -106.0779 199° South  Level FlightAware Approximate
Sat 11:36:00 AM 28.3976 -106.1071 199° South  Level FlightAware Approximate
Sat 11:37:00 AM 28.3225 -106.1363 199° South  Level FlightAware Approximate
Sat 11:38:00 AM 28.2474 -106.1654 199° South  Level FlightAware Approximate
Sat 11:39:00 AM 28.1722 -106.1945 199° South  Level FlightAware Approximate
Sat 11:40:00 AM 28.0971 -106.2235 199° South  Level FlightAware Approximate
Sat 11:41:00 AM 28.0220 -106.2526 199° South  Level FlightAware Approximate
Sat 11:42:00 AM 27.9468 -106.2815 199° South  Level FlightAware Approximate
Sat 11:43:00 AM 27.8717 -106.3105 199° South  Level FlightAware Approximate
Sat 11:44:00 AM 27.7966 -106.3393 199° South  Level FlightAware Approximate
Sat 11:45:00 AM 27.7214 -106.3682 199° South  Level FlightAware Approximate
Sat 11:46:00 AM 27.6462 -106.3970 199° South  Level FlightAware Approximate
Sat 11:47:00 AM 27.5711 -106.4258 199° South  Level FlightAware Approximate
Sat 11:48:00 AM 27.4959 -106.4545 199° South  Level FlightAware Approximate
Sat 11:49:00 AM 27.4207 -106.4832 199° South  Level FlightAware Approximate
Sat 11:50:00 AM 27.3456 -106.5119 199° South  Level FlightAware Approximate
Sat 11:51:00 AM 27.2704 -106.5405 199° South  Level FlightAware Approximate
Sat 11:52:00 AM 27.1952 -106.5691 199° South  Level FlightAware Approximate
Sat 11:53:00 AM 27.1200 -106.5976 199° South  Level FlightAware Approximate
Sat 11:54:00 AM 27.0448 -106.6261 199° South  Level FlightAware Approximate
Sat 11:55:00 AM 26.9696 -106.6546 199° South  Level FlightAware Approximate
Sat 11:56:00 AM 26.8943 -106.6830 199° South  Level FlightAware Approximate
Sat 11:57:00 AM 26.8191 -106.7114 199° South  Level FlightAware Approximate
Sat 11:58:00 AM 26.7439 -106.7398 199° South  Level FlightAware Approximate
Sat 11:59:00 AM 26.6683 -106.7670 197° South  Level FlightAware Approximate
Sat 12:00:00 PM 26.5926 -106.7935 197° South  Level FlightAware Approximate
Sat 12:01:00 PM 26.5168 -106.8200 197° South  Level FlightAware Approximate
Sat 12:02:00 PM 26.4411 -106.8465 197° South  Level FlightAware Approximate
Sat 12:03:00 PM 26.3655 -106.8736 199° South  Level FlightAware Approximate
Sat 12:04:00 PM 26.2905 -106.9025 199° South  Level FlightAware Approximate
Sat 12:05:00 PM 26.2155 -106.9315 199° South  Level FlightAware Approximate
Sat 12:06:00 PM 26.1405 -106.9604 199° South  Level FlightAware Approximate
Sat 12:07:00 PM 26.0655 -106.9893 199° South  Level FlightAware Approximate
Sat 12:08:00 PM 25.9905 -107.0181 199° South  Level FlightAware Approximate
Sat 12:09:00 PM 25.9154 -107.0469 199° South  Level FlightAware Approximate
Sat 12:10:00 PM 25.8404 -107.0757 199° South  Level FlightAware Approximate
Sat 12:11:00 PM 25.7654 -107.1044 199° South  Level FlightAware Approximate
Sat 12:12:00 PM 25.6902 -107.1328 199° South  Level FlightAware Approximate
Sat 12:13:00 PM 25.6150 -107.1608 199° South  Level FlightAware Approximate
Sat 12:14:00 PM 25.5397 -107.1888 199° South  Level FlightAware Approximate
Sat 12:15:00 PM 25.4645 -107.2168 199° South  Level FlightAware Approximate
Sat 12:16:00 PM 25.3892 -107.2447 199° South  Level FlightAware Approximate
Sat 12:17:00 PM 25.3140 -107.2727 199° South  Level FlightAware Approximate
Sat 12:18:00 PM 25.2387 -107.3005 199° South  Level FlightAware Approximate
Sat 12:19:00 PM 25.1634 -107.3284 199° South  Level FlightAware Approximate
Sat 12:20:00 PM 25.0876 -107.3542 197° South  Level FlightAware Approximate
Sat 12:21:00 PM 25.0116 -107.3796 197° South  Level FlightAware Approximate
Sat 12:22:00 PM 24.9356 -107.4049 197° South  Level FlightAware Approximate
Sat 12:23:00 PM 24.8597 -107.4302 197° South  Level FlightAware Approximate
Sat 12:24:00 PM 24.7837 -107.4555 197° South  Level FlightAware Approximate
Sat 12:25:00 PM 24.7287 -107.5093 241° Southwest  Level FlightAware Approximate
Sat 12:26:00 PM 24.6830 -107.5805 232° Southwest  Level FlightAware Approximate
Sat 12:27:00 PM 24.6340 -107.6491 232° Southwest  Level FlightAware Approximate
Sat 12:28:00 PM 24.5824 -107.7155 229° Southwest  Level FlightAware Approximate
Sat 12:29:00 PM 24.5308 -107.7818 229° Southwest  Level FlightAware Approximate
Sat 12:30:00 PM 24.4816 -107.8502 232° Southwest  Level FlightAware Approximate
Sat 12:31:00 PM 24.4332 -107.9193 232° Southwest  Level FlightAware Approximate
Sat 12:32:00 PM 24.3853 -107.9888 234° Southwest  Level FlightAware Approximate
Sat 12:33:00 PM 24.3377 -108.0585 233° Southwest  Level FlightAware Approximate
Sat 12:34:00 PM 24.2897 -108.1279 233° Southwest  Level FlightAware Approximate
Sat 12:35:00 PM 24.2417 -108.1972 233° Southwest  Level FlightAware Approximate
Sat 12:36:00 PM 24.1933 -108.2662 232° Southwest  Level FlightAware Approximate
Sat 12:37:00 PM 24.1443 -108.3346 232° Southwest  Level FlightAware Approximate
Sat 12:38:00 PM 24.0934 -108.4014 230° Southwest  Level FlightAware Approximate
Sat 12:39:00 PM 24.0420 -108.4675 230° Southwest  Level FlightAware Approximate
Sat 12:40:00 PM 23.9924 -108.5354 233° Southwest  Level FlightAware Approximate
Sat 12:41:00 PM 23.9447 -108.6048 233° Southwest  Level FlightAware Approximate
Sat 12:42:00 PM 23.8970 -108.6742 233° Southwest  Level FlightAware Approximate
Sat 12:43:00 PM 23.8493 -108.7435 233° Southwest  Level FlightAware Approximate
Sat 12:44:00 PM 23.7999 -108.8114 231° Southwest  Level FlightAware Approximate
Sat 12:45:00 PM 23.7496 -108.8785 231° Southwest  Level FlightAware Approximate
Sat 12:46:00 PM 23.6993 -108.9456 231° Southwest  Level FlightAware Approximate
Sat 12:47:00 PM 23.6489 -109.0126 231° Southwest  Level FlightAware Approximate
Sat 12:48:00 PM 23.5986 -109.0796 231° Southwest  Level FlightAware Approximate
Sat 12:49:00 PM 23.5484 -109.1466 231° Southwest  Level FlightAware Approximate
Sat 12:50:00 PM 23.5007 -109.2158 234° Southwest  Level FlightAware Approximate
Sat 12:51:00 PM 23.4540 -109.2858 234° Southwest  Level FlightAware Approximate
Sat 12:52:00 PM 23.4073 -109.3557 234° Southwest  Level FlightAware Approximate
Sat 12:53:00 PM 23.3560 -109.4217 229° Southwest  Level FlightAware Approximate
Sat 12:54:00 PM 23.3070 -109.4895 234° Southwest  Level FlightAware Approximate
Sat 12:55:00 PM 23.2573 -109.5569 231° Southwest  Level FlightAware Approximate
Sat 12:56:00 PM 23.2055 -109.6223 229° Southwest  Level FlightAware Approximate
Sat 12:57:00 PM 23.1545 -109.6885 231° Southwest  Level FlightAware Approximate
Sat 12:58:00 PM 23.1333 -109.7167 231° Southwest  Level FlightAware Approximate
Sat 12:59:00 PM 23.1518 -109.7210 231° Southwest  Level Estimated
Sat 01:00:00 PM 23.1518 -109.7210 231° Southwest  Level Estimated
Sat 01:01:00 PM 23.1518 -109.7210 231° Southwest  Level Estimated
Sat 01:02:00 PM 23.1518 -109.7210 231° Southwest  Level Estimated
Sat 01:03:00 PM 23.1518 -109.7210 231° Southwest  Level Estimated
Sat 01:04:00 PM 23.1518 -109.7210 231° Southwest  Level Estimated

Login

Don't have an account? Register now (free) for customized features, flight alerts, and more!